This is the latest recevied weather packets stored in our database for station/object DC0PP-10. If no packets are shown the sender has not sent any weather packets the latest 10 day(s).
| Time | Temp. | Humidity | Pressure | Rain* | Wind** | Luminosity | Snow |
|---|---|---|---|---|---|---|---|
| 1777661738 | 18.89° C | 44% | 1022.9 hPa | - | - | - | - |
| 1777660837 | 19.44° C | 43% | 1022.7 hPa | - | - | - | - |
| 1777659941 | 20.56° C | 40% | 1022.6 hPa | - | - | - | - |
| 1777659041 | 21.67° C | 37% | 1022.4 hPa | - | - | - | - |
| 1777658141 | 22.78° C | 35% | 1022.2 hPa | - | - | - | - |
| 1777657240 | 23.89° C | 29% | 1022.2 hPa | - | - | - | - |
| 1777656340 | 25° C | 29% | 1022 hPa | - | - | - | - |
| 1777655440 | 25° C | 28% | 1022 hPa | - | - | - | - |
| 1777654540 | 25.56° C | 27% | 1021.9 hPa | - | - | - | - |
| 1777653640 | 25.56° C | 26% | 1022 hPa | - | - | - | - |
| 1777652740 | 25.56° C | 25% | 1022.2 hPa | - | - | - | - |
| 1777651840 | 25.56° C | 25% | 1022.4 hPa | - | - | - | - |
| 1777650939 | 26.11° C | 26% | 1022.4 hPa | - | - | - | - |
| 1777650039 | 26.67° C | 25% | 1022.5 hPa | - | - | - | - |
| 1777649139 | 26.67° C | 25% | 1022.7 hPa | - | - | - | - |
| 1777648239 | 27.22° C | 26% | 1022.8 hPa | - | - | - | - |
| 1777647339 | 27.22° C | 25% | 1022.9 hPa | - | - | - | - |
| 1777646439 | 27.22° C | 27% | 1023 hPa | - | - | - | - |
| 1777645539 | 27.22° C | 26% | 1023.3 hPa | - | - | - | - |
| 1777644638 | 26.67° C | 25% | 1023.4 hPa | - | - | - | - |
| 1777643738 | 26.67° C | 25% | 1023.5 hPa | - | - | - | - |
| 1777642837 | 26.67° C | 26% | 1023.9 hPa | - | - | - | - |
| 1777641937 | 25.56° C | 26% | 1024 hPa | - | - | - | - |
| 1777641039 | 25.56° C | 27% | 1024.2 hPa | - | - | - | - |
| 1777640137 | 25° C | 27% | 1024.4 hPa | - | - | - | - |
* Rain since midnight (hover to see other rain measurements)
** Current wind speed in m/s (hover to see current wind gust speed)